createdAt,value
2023-02-14T00:00:48.259Z,4.36
2023-02-14T00:03:15.055Z,4.37
2023-02-14T00:05:41.834Z,4.41
2023-02-14T00:08:08.546Z,4.41
2023-02-14T00:10:35.184Z,4.42
2023-02-14T00:13:01.770Z,4.43
2023-02-14T00:15:28.318Z,4.44
2023-02-14T00:17:59.677Z,4.29
2023-02-14T00:20:28.172Z,4.22
2023-02-14T00:22:54.958Z,4.21
2023-02-14T00:25:21.874Z,4.20
2023-02-14T00:27:48.472Z,4.24
2023-02-14T00:30:15.305Z,4.23
2023-02-14T00:32:42.818Z,4.21
2023-02-14T00:35:10.599Z,4.18
2023-02-14T00:37:37.403Z,4.07
2023-02-14T00:40:05.724Z,4.05
2023-02-14T00:42:32.352Z,4.11
2023-02-14T00:44:58.992Z,4.02
2023-02-14T00:47:25.701Z,4.05
2023-02-14T00:49:52.417Z,4.09
2023-02-14T00:52:19.350Z,4.09
2023-02-14T00:54:46.025Z,4.07
2023-02-14T00:57:12.629Z,4.12
2023-02-14T00:59:39.303Z,4.07
2023-02-14T01:02:06.049Z,4.02
2023-02-14T01:04:32.638Z,4.11
2023-02-14T01:06:59.182Z,4.07
2023-02-14T01:09:25.756Z,4.05
2023-02-14T01:11:52.394Z,3.96
2023-02-14T01:14:19.096Z,3.98
2023-02-14T01:16:45.705Z,3.96
2023-02-14T01:19:12.357Z,3.98
2023-02-14T01:21:38.924Z,3.96
2023-02-14T01:24:07.934Z,3.87
2023-02-14T01:26:35.503Z,3.91
2023-02-14T01:29:03.880Z,3.91
2023-02-14T01:31:32.900Z,3.93
2023-02-14T01:33:59.973Z,3.94
2023-02-14T01:36:33.053Z,3.91
2023-02-14T01:39:03.318Z,3.85
2023-02-14T01:41:32.866Z,3.84
2023-02-14T01:43:59.484Z,3.82
2023-02-14T01:46:28.355Z,3.84
2023-02-14T01:49:01.839Z,3.78
2023-02-14T01:51:30.236Z,3.75
2023-02-14T01:53:57.333Z,3.75
2023-02-14T01:56:34.854Z,3.72
2023-02-14T01:59:04.862Z,3.69
2023-02-14T02:01:31.601Z,3.64
2023-02-14T02:04:06.949Z,3.71
2023-02-14T02:06:37.891Z,3.72
2023-02-14T02:09:14.110Z,3.68
2023-02-14T02:11:42.303Z,3.60
2023-02-14T02:14:18.582Z,3.65
2023-02-14T02:16:45.252Z,3.63
2023-02-14T02:19:20.902Z,3.64
2023-02-14T02:22:08.958Z,3.58
2023-02-14T02:24:40.829Z,3.55
2023-02-14T02:27:08.591Z,3.52
2023-02-14T02:30:15.756Z,3.50
2023-02-14T02:33:20.104Z,3.48
2023-02-14T02:35:54.616Z,3.35
2023-02-14T02:38:52.178Z,3.44
2023-02-14T02:41:33.612Z,3.37
2023-02-14T02:44:30.434Z,3.35
2023-02-14T02:47:05.905Z,3.33
2023-02-14T02:50:03.583Z,3.27
2023-02-14T02:53:07.729Z,3.21
2023-02-14T02:56:03.796Z,3.28
2023-02-14T02:58:35.811Z,3.30
2023-02-14T03:01:07.955Z,3.30
2023-02-14T03:03:54.615Z,3.25
2023-02-14T03:06:21.334Z,3.27
2023-02-14T03:08:47.867Z,3.30
2023-02-14T03:11:15.274Z,3.28
2023-02-14T03:14:00.855Z,3.30
2023-02-14T03:16:31.858Z,3.25
2023-02-14T03:19:40.414Z,3.18
2023-02-14T03:22:28.422Z,3.14
2023-02-14T03:25:04.804Z,3.08
2023-02-14T03:27:39.447Z,3.12
2023-02-14T03:30:16.000Z,3.02
2023-02-14T03:32:48.476Z,3.08
2023-02-14T03:35:36.566Z,3.06
2023-02-14T03:38:27.249Z,2.98
2023-02-14T03:41:12.599Z,3.08
2023-02-14T03:43:59.269Z,3.01
2023-02-14T03:46:29.225Z,3.02
2023-02-14T03:49:00.220Z,3.06
2023-02-14T03:51:34.265Z,3.09
2023-02-14T03:54:03.022Z,3.04
2023-02-14T03:56:45.440Z,3.03
2023-02-14T03:59:30.184Z,3.03
2023-02-14T04:02:21.687Z,3.08
2023-02-14T04:04:51.432Z,3.04
2023-02-14T04:07:21.184Z,3.03
2023-02-14T04:09:48.905Z,3.00
2023-02-14T04:12:19.837Z,3.01
2023-02-14T04:14:50.572Z,3.02
2023-02-14T04:17:35.441Z,2.98
2023-02-14T04:20:02.029Z,2.97
2023-02-14T04:22:28.574Z,3.01
2023-02-14T04:24:55.098Z,2.96
2023-02-14T04:27:21.667Z,2.96
2023-02-14T04:29:49.795Z,2.92
2023-02-14T04:32:21.781Z,2.93
2023-02-14T04:34:48.710Z,2.87
2023-02-14T04:37:18.280Z,2.87
2023-02-14T04:39:44.881Z,2.89
2023-02-14T04:42:12.634Z,2.85
2023-02-14T04:44:39.284Z,2.85
2023-02-14T04:47:06.960Z,2.88
2023-02-14T04:49:33.932Z,2.92
2023-02-14T04:52:00.559Z,2.87
2023-02-14T04:54:27.415Z,2.87
2023-02-14T04:56:54.027Z,2.86
2023-02-14T04:59:20.841Z,2.85
2023-02-14T05:01:47.421Z,2.82
2023-02-14T05:04:14.410Z,2.75
2023-02-14T05:06:40.995Z,2.70
2023-02-14T05:09:07.740Z,2.71
2023-02-14T05:11:34.282Z,2.77
2023-02-14T05:14:00.809Z,2.77
2023-02-14T05:16:27.487Z,2.74
2023-02-14T05:18:54.261Z,2.71
2023-02-14T05:21:20.836Z,2.70
2023-02-14T05:23:47.433Z,2.70
2023-02-14T05:26:14.218Z,2.66
2023-02-14T05:28:41.145Z,2.64
2023-02-14T05:31:08.904Z,2.54
2023-02-14T05:33:35.619Z,2.40
2023-02-14T05:36:02.814Z,2.46
2023-02-14T05:38:30.675Z,2.50
2023-02-14T05:40:57.385Z,2.58
2023-02-14T05:43:24.093Z,2.57
2023-02-14T05:45:50.720Z,2.58
2023-02-14T05:48:17.586Z,2.57
2023-02-14T05:50:45.563Z,2.49
2023-02-14T05:53:13.105Z,2.39
2023-02-14T05:55:39.805Z,2.34
2023-02-14T05:58:06.887Z,2.30
2023-02-14T06:00:34.484Z,2.26
2023-02-14T06:03:01.557Z,2.19
2023-02-14T06:05:28.323Z,2.04
2023-02-14T06:07:54.857Z,1.96
2023-02-14T06:10:24.909Z,1.95
2023-02-14T06:12:53.408Z,2.01
2023-02-14T06:15:20.293Z,2.03
2023-02-14T06:17:54.599Z,2.16
2023-02-14T06:20:22.100Z,2.21
2023-02-14T06:22:48.882Z,2.24
2023-02-14T06:25:15.850Z,2.21
2023-02-14T06:27:42.760Z,2.16
2023-02-14T06:30:10.661Z,2.13
2023-02-14T06:32:37.387Z,2.15
2023-02-14T06:35:04.283Z,2.18
2023-02-14T06:37:30.822Z,2.22
2023-02-14T06:39:57.527Z,2.29
2023-02-14T06:42:24.162Z,2.25
2023-02-14T06:44:50.849Z,2.19
2023-02-14T06:47:17.398Z,2.14
2023-02-14T06:49:43.958Z,2.09
2023-02-14T06:52:10.834Z,2.08
2023-02-14T06:54:37.359Z,2.20
2023-02-14T06:57:03.995Z,2.20
2023-02-14T06:59:30.842Z,2.25
2023-02-14T07:01:57.376Z,2.25
2023-02-14T07:04:23.978Z,2.26
2023-02-14T07:06:50.757Z,2.29
2023-02-14T07:09:18.307Z,2.31
2023-02-14T07:11:45.820Z,2.36
2023-02-14T07:14:13.097Z,2.35
2023-02-14T07:16:39.800Z,2.41
2023-02-14T07:19:06.414Z,2.47
2023-02-14T07:21:33.025Z,2.51
2023-02-14T07:24:00.822Z,2.53
2023-02-14T07:26:27.438Z,2.58
2023-02-14T07:28:54.046Z,2.66
2023-02-14T07:31:22.726Z,2.69
2023-02-14T07:33:51.319Z,2.77
2023-02-14T07:36:18.458Z,2.85
2023-02-14T07:38:45.051Z,2.90
2023-02-14T07:41:11.644Z,3.02
2023-02-14T07:43:39.733Z,3.06
2023-02-14T07:46:06.789Z,3.10
2023-02-14T07:48:34.440Z,3.20
2023-02-14T07:51:01.828Z,3.19
2023-02-14T07:53:28.595Z,3.24
2023-02-14T07:55:55.455Z,3.32
2023-02-14T07:58:22.072Z,3.29
2023-02-14T08:00:48.995Z,3.40
2023-02-14T08:03:16.130Z,3.47
2023-02-14T08:05:43.174Z,3.59
2023-02-14T08:08:09.837Z,3.67
2023-02-14T08:10:36.450Z,3.83
2023-02-14T08:13:03.719Z,3.81
2023-02-14T08:15:53.843Z,3.91
2023-02-14T08:18:25.458Z,3.99
2023-02-14T08:20:53.279Z,4.03
2023-02-14T08:23:21.058Z,4.08
2023-02-14T08:25:52.688Z,4.02
2023-02-14T08:28:21.916Z,4.18
2023-02-14T08:30:48.601Z,4.22
2023-02-14T08:33:15.213Z,4.23
2023-02-14T08:35:41.984Z,4.44
2023-02-14T08:38:08.606Z,4.35
2023-02-14T08:40:37.125Z,4.44
2023-02-14T08:43:05.659Z,4.59
2023-02-14T08:45:32.818Z,4.70
2023-02-14T08:48:04.493Z,4.67
2023-02-14T08:50:31.174Z,4.68
2023-02-14T08:52:57.956Z,4.71
2023-02-14T08:55:24.677Z,4.71
2023-02-14T08:57:51.272Z,4.87
2023-02-14T09:00:18.214Z,4.91
2023-02-14T09:02:44.818Z,4.93
2023-02-14T09:05:11.481Z,4.88
2023-02-14T09:07:38.048Z,4.79
2023-02-14T09:10:05.165Z,4.87
2023-02-14T09:12:31.727Z,5.16
2023-02-14T09:14:58.373Z,5.07
2023-02-14T09:17:25.007Z,4.96
2023-02-14T09:19:51.644Z,5.09
2023-02-14T09:22:20.253Z,5.16
2023-02-14T09:24:46.935Z,5.35
2023-02-14T09:27:13.539Z,5.38
2023-02-14T09:29:40.149Z,5.39
2023-02-14T09:32:06.885Z,5.27
2023-02-14T09:34:34.987Z,5.38
2023-02-14T09:37:01.605Z,5.43
2023-02-14T09:39:28.182Z,5.52
2023-02-14T09:41:54.710Z,5.62
2023-02-14T09:44:44.431Z,5.69
2023-02-14T09:47:31.489Z,5.69
2023-02-14T09:49:58.840Z,5.78
2023-02-14T09:52:29.214Z,5.80
2023-02-14T09:55:01.156Z,5.91
2023-02-14T09:57:43.396Z,5.86
2023-02-14T10:00:21.800Z,5.97
2023-02-14T10:03:12.616Z,6.14
2023-02-14T10:05:58.145Z,6.25
2023-02-14T10:08:56.048Z,6.26
2023-02-14T10:11:24.888Z,6.11
2023-02-14T10:14:05.307Z,6.25
2023-02-14T10:16:38.716Z,6.54
2023-02-14T10:19:19.123Z,6.69
2023-02-14T10:21:54.334Z,6.86
2023-02-14T10:24:56.161Z,6.71
2023-02-14T10:27:42.528Z,6.45
2023-02-14T10:30:23.767Z,6.71
2023-02-14T10:33:01.942Z,6.83
2023-02-14T10:35:28.448Z,6.84
2023-02-14T10:38:17.469Z,6.90
2023-02-14T10:41:21.345Z,6.95
2023-02-14T10:44:01.776Z,7.05
2023-02-14T10:46:57.790Z,7.09
2023-02-14T10:49:30.268Z,7.18
2023-02-14T10:52:32.204Z,7.25
2023-02-14T10:55:05.604Z,7.42
2023-02-14T10:57:37.022Z,7.41
2023-02-14T11:00:16.734Z,7.32
2023-02-14T11:02:46.941Z,7.68
2023-02-14T11:05:31.176Z,7.52
2023-02-14T11:08:01.956Z,7.66
2023-02-14T11:10:33.065Z,7.64
2023-02-14T11:12:59.826Z,7.62
2023-02-14T11:15:31.505Z,7.84
2023-02-14T11:18:24.975Z,7.88
2023-02-14T11:21:24.379Z,8.01
2023-02-14T11:23:51.576Z,8.19
2023-02-14T11:26:24.757Z,8.29
2023-02-14T11:28:56.811Z,8.29
2023-02-14T11:31:42.837Z,8.14
2023-02-14T11:34:36.599Z,8.39
2023-02-14T11:37:16.165Z,8.33
2023-02-14T11:39:43.035Z,8.21
2023-02-14T11:42:12.981Z,8.43
2023-02-14T11:44:55.901Z,8.63
2023-02-14T11:47:29.411Z,8.60
2023-02-14T11:50:23.696Z,8.68
2023-02-14T11:52:56.426Z,8.79
2023-02-14T11:55:34.029Z,8.38
2023-02-14T11:58:05.391Z,8.32
2023-02-14T12:00:33.508Z,8.44
2023-02-14T12:03:05.019Z,8.60
2023-02-14T12:05:48.667Z,8.23
2023-02-14T12:08:15.904Z,8.44
2023-02-14T12:10:42.553Z,8.77
2023-02-14T12:13:09.053Z,8.53
2023-02-14T12:15:42.727Z,8.47
2023-02-14T12:18:09.297Z,8.69
2023-02-14T12:20:42.651Z,9.13
2023-02-14T12:23:24.113Z,9.14
2023-02-14T12:25:56.569Z,8.52
2023-02-14T12:28:31.521Z,8.95
2023-02-14T12:30:58.824Z,8.91
2023-02-14T12:33:26.619Z,8.65
2023-02-14T12:36:05.340Z,8.50
2023-02-14T12:38:57.814Z,8.28
2023-02-14T12:41:36.810Z,8.53
2023-02-14T12:44:12.483Z,8.68
2023-02-14T12:47:05.336Z,8.93
2023-02-14T12:49:40.682Z,8.87
2023-02-14T12:52:16.278Z,9.15
2023-02-14T12:54:48.410Z,8.46
2023-02-14T12:57:24.653Z,8.46
2023-02-14T13:00:03.007Z,8.43
2023-02-14T13:02:51.033Z,8.70
2023-02-14T13:05:48.724Z,8.48
2023-02-14T13:08:18.194Z,8.57
2023-02-14T13:10:54.668Z,8.75
2023-02-14T13:13:40.187Z,8.64
2023-02-14T13:16:22.118Z,8.90
2023-02-14T13:18:54.953Z,8.79
2023-02-14T13:21:33.647Z,8.91
2023-02-14T13:24:24.343Z,9.12
2023-02-14T13:26:59.114Z,8.79
2023-02-14T13:29:44.531Z,8.89
2023-02-14T13:32:14.281Z,9.21
2023-02-14T13:34:46.827Z,9.40
2023-02-14T13:37:22.836Z,8.90
2023-02-14T13:39:59.389Z,9.01
2023-02-14T13:42:49.724Z,9.28
2023-02-14T13:45:40.777Z,9.26
2023-02-14T13:48:13.136Z,9.42
2023-02-14T13:50:50.710Z,9.80
2023-02-14T13:53:41.373Z,9.22
2023-02-14T13:56:16.864Z,9.58
2023-02-14T13:59:24.476Z,9.67
2023-02-14T14:01:51.456Z,9.69
2023-02-14T14:04:30.494Z,9.80
2023-02-14T14:07:02.956Z,9.85
2023-02-14T14:09:41.753Z,10.01
2023-02-14T14:12:26.241Z,9.87
2023-02-14T14:15:04.943Z,9.82
2023-02-14T14:17:36.473Z,9.88
2023-02-14T14:20:24.665Z,9.78
2023-02-14T14:22:55.169Z,9.34
2023-02-14T14:44:17.437Z,9.80
2023-02-14T14:46:45.123Z,9.59
2023-02-14T14:49:12.743Z,9.70
2023-02-14T14:51:40.044Z,9.42
2023-02-14T14:54:12.341Z,9.22
2023-02-14T14:56:50.965Z,9.26
2023-02-14T14:59:27.636Z,9.18
2023-02-14T15:01:54.614Z,9.27
2023-02-14T15:04:29.316Z,9.01
2023-02-14T15:06:57.730Z,8.99
2023-02-14T15:09:31.560Z,8.92
2023-02-14T15:12:19.781Z,8.96
2023-02-14T15:14:54.423Z,8.88
2023-02-14T15:17:32.797Z,8.89
2023-02-14T15:20:04.055Z,8.87
2023-02-14T15:22:41.428Z,8.75
2023-02-14T15:25:10.728Z,8.69
2023-02-14T15:27:41.321Z,8.68
2023-02-14T15:30:23.524Z,8.77
2023-02-14T15:32:51.340Z,8.85
2023-02-14T15:35:24.171Z,8.74
2023-02-14T15:37:52.019Z,8.76
2023-02-14T15:40:24.169Z,8.73
2023-02-14T15:42:56.432Z,8.69
2023-02-14T15:45:27.623Z,8.64
2023-02-14T15:47:59.800Z,8.50
2023-02-14T15:50:31.313Z,8.53
2023-02-14T15:53:08.100Z,8.52
2023-02-14T15:55:36.176Z,8.45
2023-02-14T15:58:08.606Z,8.43
2023-02-14T16:00:35.629Z,8.40
2023-02-14T16:03:10.761Z,8.35
2023-02-14T16:05:37.500Z,8.37
2023-02-14T16:08:05.349Z,8.31
2023-02-14T16:10:34.855Z,8.17
2023-02-14T16:13:06.607Z,8.12
2023-02-14T16:15:38.741Z,8.05
2023-02-14T16:18:32.675Z,7.94
2023-02-14T16:21:11.579Z,8.00
2023-02-14T16:23:38.183Z,7.93
2023-02-14T16:26:08.563Z,7.82
2023-02-14T16:28:36.908Z,7.75
2023-02-14T16:31:06.203Z,7.81
2023-02-14T16:33:35.577Z,7.62
2023-02-14T16:36:14.236Z,7.54
2023-02-14T16:38:44.992Z,7.49
2023-02-14T16:41:20.388Z,7.36
2023-02-14T16:43:48.207Z,7.21
2023-02-14T16:46:16.752Z,7.16
2023-02-14T16:48:43.606Z,7.08
2023-02-14T16:51:14.005Z,7.03
2023-02-14T16:53:42.683Z,6.99
2023-02-14T16:56:17.026Z,6.87
2023-02-14T16:58:43.950Z,6.80
2023-02-14T17:01:10.479Z,6.74
2023-02-14T17:03:36.979Z,6.73
2023-02-14T17:06:03.599Z,6.67
2023-02-14T17:08:31.107Z,6.62
2023-02-14T17:10:58.567Z,6.53
2023-02-14T17:13:27.653Z,6.43
2023-02-14T17:15:55.041Z,6.29
2023-02-14T17:18:23.350Z,6.18
2023-02-14T17:20:49.917Z,6.04
2023-02-14T17:23:16.468Z,5.91
2023-02-14T17:25:43.191Z,5.80
2023-02-14T17:28:10.785Z,5.64
2023-02-14T17:30:37.219Z,5.51
2023-02-14T17:33:04.821Z,5.36
2023-02-14T17:35:33.276Z,5.29
2023-02-14T17:37:59.735Z,5.23
2023-02-14T17:40:28.227Z,5.23
2023-02-14T17:42:54.704Z,5.26
2023-02-14T17:45:21.120Z,5.43
2023-02-14T17:47:47.628Z,5.50
2023-02-14T17:50:15.680Z,5.54
2023-02-14T17:52:42.581Z,5.51
2023-02-14T17:55:09.361Z,5.49
2023-02-14T17:57:36.895Z,5.47
2023-02-14T18:00:05.748Z,5.46
2023-02-14T18:02:32.410Z,5.46
2023-02-14T18:04:59.240Z,5.44
2023-02-14T18:07:25.764Z,5.37
2023-02-14T18:09:52.299Z,5.34
2023-02-14T18:12:18.841Z,5.43
2023-02-14T18:14:45.332Z,5.45
2023-02-14T18:17:12.863Z,5.50
2023-02-14T18:19:39.464Z,5.41
2023-02-14T18:22:05.926Z,5.49
2023-02-14T18:24:32.547Z,5.53
2023-02-14T18:26:59.182Z,5.50
2023-02-14T18:29:26.079Z,5.52
2023-02-14T18:31:53.047Z,5.50
2023-02-14T18:34:19.618Z,5.57
2023-02-14T18:36:46.426Z,5.62
2023-02-14T18:39:12.963Z,5.61
2023-02-14T18:41:39.747Z,5.65
2023-02-14T18:44:07.109Z,5.63
2023-02-14T18:46:35.622Z,5.54
2023-02-14T18:49:05.886Z,5.50
2023-02-14T18:51:39.305Z,5.52
2023-02-14T18:54:06.897Z,5.58
2023-02-14T18:56:36.739Z,5.59
2023-02-14T18:59:06.666Z,5.61
2023-02-14T19:01:39.470Z,5.69
2023-02-14T19:04:08.617Z,5.74
2023-02-14T19:06:35.860Z,5.76
2023-02-14T19:09:03.281Z,5.72
2023-02-14T19:11:31.763Z,5.77
2023-02-14T19:14:00.481Z,5.78
2023-02-14T19:16:33.349Z,5.75
2023-02-14T19:19:02.904Z,5.78
2023-02-14T19:21:33.774Z,5.76
2023-02-14T19:24:01.043Z,5.76
2023-02-14T19:26:32.688Z,5.72
2023-02-14T19:29:02.203Z,5.68
2023-02-14T19:31:29.601Z,5.65
2023-02-14T19:33:56.528Z,5.59
2023-02-14T19:36:23.931Z,5.62
2023-02-14T19:38:52.623Z,5.59
2023-02-14T19:41:23.258Z,5.61
2023-02-14T19:43:53.624Z,5.54
2023-02-14T19:46:21.393Z,5.55
2023-02-14T19:48:48.835Z,5.48
2023-02-14T19:51:36.498Z,5.51
2023-02-14T19:54:05.768Z,5.47
2023-02-14T19:56:36.535Z,5.45
2023-02-14T19:59:09.092Z,5.44
2023-02-14T20:01:42.120Z,5.53
2023-02-14T20:04:14.555Z,5.61
2023-02-14T20:06:42.344Z,5.62
2023-02-14T20:09:09.626Z,5.62
2023-02-14T20:11:50.141Z,5.59
2023-02-14T20:14:28.611Z,5.60
2023-02-14T20:16:58.114Z,5.62
2023-02-14T20:19:27.814Z,5.58
2023-02-14T20:21:54.992Z,5.59
2023-02-14T20:24:24.090Z,5.59
2023-02-14T20:26:51.677Z,5.56
2023-02-14T20:29:19.222Z,5.50
2023-02-14T20:31:48.954Z,5.45
2023-02-14T20:34:16.376Z,5.48
2023-02-14T20:36:43.700Z,5.36
2023-02-14T20:39:12.587Z,5.36
2023-02-14T20:41:39.203Z,5.28
2023-02-14T20:44:09.771Z,5.22
2023-02-14T20:46:36.340Z,5.18
2023-02-14T20:49:03.327Z,5.17
2023-02-14T20:51:29.939Z,5.05
2023-02-14T20:53:56.816Z,5.09
2023-02-14T20:56:23.804Z,5.07
2023-02-14T20:58:50.626Z,5.02
2023-02-14T21:01:20.572Z,4.99
2023-02-14T21:03:50.761Z,4.92
2023-02-14T21:06:19.318Z,4.90
2023-02-14T21:08:46.239Z,4.94
2023-02-14T21:11:15.013Z,4.92
2023-02-14T21:13:41.581Z,4.95
2023-02-14T21:16:10.975Z,4.87
2023-02-14T21:18:38.101Z,4.86
2023-02-14T21:21:32.513Z,4.80
2023-02-14T21:24:00.788Z,4.75
2023-02-14T21:26:27.930Z,4.77
2023-02-14T21:28:54.468Z,4.76
2023-02-14T21:31:21.818Z,4.78
2023-02-14T21:33:53.742Z,4.75
2023-02-14T21:36:21.962Z,4.72
2023-02-14T21:38:48.936Z,4.66
2023-02-14T21:41:18.504Z,4.74
2023-02-14T21:43:46.762Z,4.67
2023-02-14T21:46:18.072Z,4.64
2023-02-14T21:49:03.807Z,4.63
2023-02-14T21:51:31.547Z,4.60
2023-02-14T21:54:01.442Z,4.50
2023-02-14T21:56:28.384Z,4.44
2023-02-14T21:58:55.626Z,4.41
2023-02-14T22:01:28.486Z,4.46
2023-02-14T22:03:56.508Z,4.31
2023-02-14T22:06:23.935Z,4.22
2023-02-14T22:08:55.832Z,4.26
2023-02-14T22:11:23.535Z,4.26
2023-02-14T22:13:50.216Z,4.26
2023-02-14T22:16:19.091Z,4.23
2023-02-14T22:18:47.829Z,4.21
2023-02-14T22:21:17.007Z,4.22
2023-02-14T22:23:44.219Z,4.25
2023-02-14T22:26:13.768Z,4.21
2023-02-14T22:28:41.670Z,4.22
2023-02-14T22:31:08.418Z,4.21
2023-02-14T22:33:37.995Z,4.19
2023-02-14T22:36:05.394Z,4.15
2023-02-14T22:38:32.342Z,4.18
2023-02-14T22:41:08.733Z,4.06
2023-02-14T22:43:36.586Z,4.01
2023-02-14T22:46:05.391Z,3.96
2023-02-14T22:48:34.010Z,4.01
2023-02-14T22:51:29.681Z,3.98
2023-02-14T22:53:59.090Z,3.97
2023-02-14T22:56:28.632Z,3.90
2023-02-14T22:59:00.949Z,3.86
2023-02-14T23:01:28.561Z,3.84
2023-02-14T23:03:57.007Z,3.71
2023-02-14T23:06:25.735Z,3.69
2023-02-14T23:08:52.463Z,3.68
2023-02-14T23:11:27.599Z,3.62
2023-02-14T23:14:13.801Z,3.63
2023-02-14T23:16:59.294Z,3.61
2023-02-14T23:19:47.296Z,3.53
2023-02-14T23:22:21.484Z,3.46
2023-02-14T23:24:50.143Z,3.47
2023-02-14T23:27:19.662Z,3.49
2023-02-14T23:29:46.196Z,3.44
2023-02-14T23:32:13.282Z,3.45
2023-02-14T23:34:41.733Z,3.44
2023-02-14T23:37:09.284Z,3.50
2023-02-14T23:39:36.745Z,3.47
2023-02-14T23:42:11.498Z,3.53
2023-02-14T23:44:38.135Z,3.55
2023-02-14T23:47:06.285Z,3.56
2023-02-14T23:49:34.756Z,3.53
2023-02-14T23:52:02.004Z,3.54
2023-02-14T23:54:28.590Z,3.51
2023-02-14T23:56:55.432Z,3.50
2023-02-14T23:59:22.209Z,3.50
